Terminal Aerodrome Forecast
Issued by NWS Austin/San Antonio, TX

Home | Current Version | Previous Version | Text Only | Print | Product List | Glossary On
Versions: 1 2 3 4 5 6 7 8 9 10 11 12 13 14 15 16 17 18 19 20 21 22 23 24 25 26 27 28 29 30
718
FTUS44 KEWX 041904 AAA
TAFDRT
TAF AMD
KDRT 041904Z 0419/0518 33010KT P6SM -SHRA SCT009 OVC015
     FM050000 33008KT 5SM SHRA BR BKN008 OVC030
      TEMPO 0503/0507 2SM TSRA OVC009CB
     FM051200 31006KT P6SM -SHRA OVC006
     FM051700 31010KT P6SM VCSH SCT006 BKN020=

USA.gov is the U.S. government's official web portal to all federal, state and local government web resources and services.